Macamic, Canada
Current Conditions -  °F | °C
As of 9:29 AM on Saturday 25 Oct 2014 (Local Time) from CYUY Reporting Station
Rain Showers Rain Showers  
Wind Chill: 40°   Ceiling: 700
Heat Index: 45°   Visibility: 2.2mi
Dew Point: 45°   Wind: 8mph
Humidity: 100%   Direction: 180°S
Pressure: 29.46"   Gusts: NA
Location:  48.77°N, 79°W
Report Text: CYUY 251329Z 18007KT 2 1/4SM -SHRA BR BKN007 OVC020 07/07 A2946 RMK SF6SC2 SLP984
Loading
Personal Weather Stations






























Interactive Weather Map
Tropical Storm Tracking
New forecast layout! Learn more

10-Day Weather Forecast

Advertisements
Track Severe Weather on mobile